CheckWX is a tool to help pilots better visualize weather data.  It is not intended as a substitute for an official pre-flight weather briefing.

20:09:48 UTC

KHUA METAR
Redstone AAF Airport
Redstone Arsnl Huntsville, Alabama, USA
Current

1 hour ago

KHUA 231858Z AUTO 25005KT 10SM BKN170 26/12 A3008 RMK AO2 SLP183 T02560120
Observed
Apr-23 @ 18:58 UTC
Wind
  • 250° at 5 KTS
Visibility
10 SM
Flight Rules
VFR
Cloud Levels
  • Broken at 17,000' AGL
Temperature
26°C / 79°F
Dewpoint
12°C / 54°F
Humidity
42%
Altimeter
30.08" Hg
Pressure
1018.62 hPa
Previous

2 hours ago

KHUA 231758Z AUTO 26003KT 10SM BKN180 25/11 A3010 RMK AO2 SLP190 T02470107 10248 20118 58012
Observed
Apr-23 @ 17:58 UTC
Wind
  • 260° at 3 KTS
Visibility
10 SM
Flight Rules
VFR
Cloud Levels
  • Broken at 18,000' AGL
Temperature
25°C / 77°F
Dewpoint
11°C / 52°F
Humidity
42%
Altimeter
30.1" Hg
Pressure
1019.32 hPa
Previous

3 hours ago

KHUA 231658Z AUTO 26005KT 10SM BKN170 24/12 A3012 RMK AO2 SLP197 T02370122
Observed
Apr-23 @ 16:58 UTC
Wind
  • 260° at 5 KTS
Visibility
10 SM
Flight Rules
VFR
Cloud Levels
  • Broken at 17,000' AGL
Temperature
24°C / 75°F
Dewpoint
12°C / 54°F
Humidity
47%
Altimeter
30.12" Hg
Pressure
1020.02 hPa